Kendall, MI (49062)

4:10 AM EST on November 23, 2014 (GMT -0500)
Gobles | Change Station
CLOSE
Current Station
Personal Weather Station
Location: Gobles, MI
Elevation: 860 ft
Nearby Weather Stations

Elev 860 ft 42.40 °N, 85.82 °W | Updated 3 minutes ago

Mostly Cloudy
Mostly Cloudy
47.1 °F
Feels Like 45 °F
N
4.2
Wind Variable Wind from SSW

Today
High -- | Low -- °F
--% Chance of Precip.
Yesterday
High -- | Low -- °F
Precip. -- in
7:43 AM 5:15 PM
New Moon, 1% visible
Pressure 29.90 in
Visibility 7.0 miles
Clouds Overcast 1600 ft
Windchill 45 °F
Dew Point 47 °F
Humidity 98%
Rainfall 0.00 in
Snow Depth Not available.
UV 0 out of 12
Pollen .10 out of 12
Air Quality Not available.
Flu Activity Not available.
METAR KAZO 230853Z AUTO 19009KT 7SM -RA OVC016 09/07 A2989 RMK AO2 RAE23B40 SLP125 P0001 60003 T00890067 58007

More Conditions Fewer Conditions

Pressure 29.90 in
Visibility 7.0 miles
Clouds Overcast 1600 ft
Windchill 45 °F
Dew Point 47 °F
Humidity 98%
Rainfall 0.00 in
Snow Depth Not available.
UV 0 out of 12
Pollen .10 out of 12
Air Quality Not available.
Flu Activity Not available.
METAR KAZO 230853Z AUTO 19009KT 7SM -RA OVC016 09/07 A2989 RMK AO2 RAE23B40 SLP125 P0001 60003 T00890067 58007

More Conditions Fewer Conditions

10-Day Weather Forecast

Almanac

Astronomy

Nov. 23, 2014 Rise Set
Actual Time
Civil Twilight
Nautical Twilight
Astronomical Twilight
Moon
Length of Visible Light
Length of Day
Tomorrow will be .
, % of the Moon is Illuminated

Today's Extremes

State Highs State Lows

Community

WunderPhotos

Upload Photos

1,773,024 photos uploaded!

WunderBlogs® & News

Nearby

Air Quality

  Air Quality AQ Index Pollutant
Not available.

Snow Depth

Station Depth Elevation

Earthquake Activity

City Distance Mag. Time & Date
Minimum magnitude displayed is 2.5.

Coastal Water Temperatures

Place Temperature

Nearby Weather Stations